Time;durP1;ratioP1;P1;durP2;ratioP2;P2;SDS_P1;SDS_P2;PMS_P1;PMS_P2;Temp;Humidity;BMP_temperature;BMP_pressure;BME280_temperature;BME280_humidity;BME280_pressure;Samples;Min_cycle;Max_cycle;Signal;HPM_P1;HPM_P2
2021/10/19 00:01:12;;;;;;;32.08;20.42;;;7.70;99.90;;;;;;5054010;28;20210;-70
2021/10/19 00:03:41;;;;;;;24.75;18.23;;;7.70;99.90;;;;;;5070892;28;20174;-70
2021/10/19 00:06:10;;;;;;;27.08;18.95;;;7.70;99.90;;;;;;5054296;28;20197;-70
2021/10/19 00:08:38;;;;;;;28.02;18.63;;;7.70;99.90;;;;;;5070765;28;20227;-70
2021/10/19 00:11:04;;;;;;;33.65;19.73;;;7.70;99.90;;;;;;5070687;28;20276;-70
2021/10/19 00:13:36;;;;;;;29.20;18.63;;;7.60;99.90;;;;;;5070586;28;20174;-70
2021/10/19 00:16:11;;;;;;;23.13;17.63;;;7.60;99.90;;;;;;5054998;28;20245;-70
2021/10/19 00:18:39;;;;;;;27.80;18.00;;;7.50;99.90;;;;;;5070497;28;20177;-70
2021/10/19 00:21:07;;;;;;;23.77;15.88;;;7.40;99.90;;;;;;5070584;28;20248;-69
2021/10/19 00:23:34;;;;;;;25.30;17.40;;;7.40;99.90;;;;;;5070336;28;20594;-70
2021/10/19 00:26:02;;;;;;;26.88;17.30;;;7.40;99.90;;;;;;5070493;28;20205;-70
2021/10/19 00:28:28;;;;;;;21.25;17.20;;;7.40;99.90;;;;;;5054996;28;20220;-71
2021/10/19 00:30:58;;;;;;;25.70;17.57;;;7.30;99.90;;;;;;5070359;28;20206;-70
2021/10/19 00:33:29;;;;;;;26.98;19.95;;;7.30;99.90;;;;;;5070403;28;20185;-70
2021/10/19 00:35:59;;;;;;;24.35;17.38;;;7.30;99.90;;;;;;5070067;28;20698;-70
2021/10/19 00:38:31;;;;;;;26.83;17.88;;;7.20;99.90;;;;;;5054810;28;20223;-70
2021/10/19 00:41:05;;;;;;;24.35;16.10;;;7.20;99.90;;;;;;5055128;28;20203;-70
2021/10/19 00:43:37;;;;;;;21.38;16.60;;;7.20;99.90;;;;;;5070150;28;20182;-69
2021/10/19 00:46:03;;;;;;;23.80;17.08;;;7.20;99.90;;;;;;5070109;28;20206;-70
2021/10/19 00:48:32;;;;;;;23.88;16.55;;;7.10;99.90;;;;;;5054638;28;20170;-70
2021/10/19 00:51:05;;;;;;;24.40;15.85;;;7.10;99.90;;;;;;5070153;28;20687;-70
2021/10/19 00:53:32;;;;;;;22.60;16.73;;;7.10;99.90;;;;;;5052992;28;20178;-69
2021/10/19 00:56:00;;;;;;;27.38;17.65;;;7.10;99.90;;;;;;5069983;28;20285;-70
2021/10/19 00:58:26;;;;;;;22.13;16.90;;;7.00;99.90;;;;;;5069819;28;20236;-70
2021/10/19 01:00:52;;;;;;;24.60;17.00;;;7.00;99.90;;;;;;5069424;28;20216;-70
2021/10/19 01:03:21;;;;;;;24.52;17.55;;;7.00;99.90;;;;;;5069719;28;20208;-70
2021/10/19 01:05:48;;;;;;;29.95;19.10;;;7.00;99.90;;;;;;5070018;28;20725;-70
2021/10/19 01:08:14;;;;;;;25.92;18.52;;;7.00;99.90;;;;;;5069637;28;20201;-71
2021/10/19 01:10:43;;;;;;;26.63;17.80;;;7.00;99.90;;;;;;5069224;28;20679;-70
2021/10/19 01:13:10;;;;;;;29.50;18.58;;;7.00;99.90;;;;;;5069468;28;20181;-70
2021/10/19 01:15:36;;;;;;;27.85;18.15;;;7.00;99.90;;;;;;5069231;28;20201;-71
2021/10/19 01:18:04;;;;;;;25.52;17.83;;;7.00;99.90;;;;;;5069834;28;20173;-70
2021/10/19 01:20:37;;;;;;;27.20;17.50;;;7.00;99.90;;;;;;5069290;28;20237;-70
2021/10/19 01:23:11;;;;;;;24.85;17.98;;;7.00;99.90;;;;;;5069467;28;20169;-70
2021/10/19 01:25:42;;;;;;;31.45;18.00;;;6.90;99.90;;;;;;5069502;28;20205;-70
2021/10/19 01:28:13;;;;;;;26.20;18.25;;;6.90;99.90;;;;;;5069383;28;20169;-70
2021/10/19 01:30:44;;;;;;;27.80;18.30;;;6.80;99.90;;;;;;5068752;28;20259;-69
2021/10/19 01:33:15;;;;;;;22.20;17.17;;;6.80;99.90;;;;;;5069352;28;20235;-70
2021/10/19 01:35:52;;;;;;;25.85;18.13;;;6.80;99.90;;;;;;5069117;28;20213;-70
2021/10/19 01:38:24;;;;;;;27.35;18.02;;;6.70;99.90;;;;;;5069243;28;20204;-70
2021/10/19 01:40:55;;;;;;;23.30;17.40;;;6.70;99.90;;;;;;5069491;28;20198;-70
2021/10/19 01:43:28;;;;;;;29.98;18.65;;;6.70;99.90;;;;;;5069498;28;20180;-70
2021/10/19 01:45:56;;;;;;;29.75;18.30;;;6.70;99.90;;;;;;5069196;28;20682;-69
2021/10/19 01:48:24;;;;;;;26.67;18.25;;;6.80;99.90;;;;;;5069145;28;20186;-70
2021/10/19 01:50:53;;;;;;;27.38;18.75;;;6.80;99.90;;;;;;5069258;28;20213;-70
2021/10/19 01:53:24;;;;;;;25.98;18.85;;;6.80;99.90;;;;;;5069040;28;20674;-70
2021/10/19 01:55:55;;;;;;;25.88;18.33;;;6.70;99.90;;;;;;5068601;28;20255;-70
2021/10/19 01:58:26;;;;;;;27.85;19.75;;;6.70;99.90;;;;;;5068971;28;20184;-70
2021/10/19 02:01:01;;;;;;;24.70;17.83;;;6.70;99.90;;;;;;5069117;28;20210;-70
2021/10/19 02:03:30;;;;;;;23.13;17.27;;;6.70;99.90;;;;;;5052616;28;20176;-69
2021/10/19 02:05:58;;;;;;;23.75;17.70;;;6.70;99.90;;;;;;5069032;28;20288;-70
2021/10/19 02:08:25;;;;;;;27.42;19.05;;;6.60;99.90;;;;;;5069330;28;20178;-70
2021/10/19 02:10:55;;;;;;;31.95;20.13;;;6.60;99.90;;;;;;5052267;28;20560;-70
2021/10/19 02:13:21;;;;;;;25.20;18.15;;;6.60;99.90;;;;;;5069763;28;20272;-70
2021/10/19 02:15:48;;;;;;;24.30;17.55;;;6.60;99.90;;;;;;5068668;28;20264;-69
2021/10/19 02:18:19;;;;;;;27.63;17.98;;;6.60;99.90;;;;;;5068732;28;20174;-70
2021/10/19 02:20:47;;;;;;;27.88;18.67;;;6.50;99.90;;;;;;5068578;28;20244;-70
2021/10/19 02:23:21;;;;;;;28.45;19.27;;;6.50;99.90;;;;;;5069126;28;20178;-69
2021/10/19 02:25:49;;;;;;;28.25;17.85;;;6.50;99.90;;;;;;5069111;28;20202;-70
2021/10/19 02:28:15;;;;;;;26.40;17.52;;;6.50;99.90;;;;;;5068697;28;20201;-69
2021/10/19 02:30:44;;;;;;;25.92;17.60;;;6.40;99.90;;;;;;5068562;28;20288;-70
2021/10/19 02:33:10;;;;;;;26.83;18.10;;;6.40;99.90;;;;;;5052070;28;20174;-69
2021/10/19 02:35:40;;;;;;;29.25;19.20;;;6.30;99.90;;;;;;5053440;28;20213;-70
2021/10/19 02:38:07;;;;;;;26.35;17.77;;;6.30;99.90;;;;;;5068854;28;20182;-70
2021/10/19 02:40:37;;;;;;;26.98;19.95;;;6.30;99.90;;;;;;5068953;28;20206;-69
2021/10/19 02:43:21;;;;;;;23.45;18.00;;;6.30;99.90;;;;;;5072482;28;20205;-70
2021/10/19 02:45:48;;;;;;;27.10;20.17;;;6.20;99.90;;;;;;5055474;28;20255;-70
2021/10/19 02:48:17;;;;;;;20.75;17.23;;;6.20;99.90;;;;;;5072471;28;20204;-70
2021/10/19 02:50:43;;;;;;;26.27;19.30;;;6.10;99.90;;;;;;5072289;28;20301;-69
2021/10/19 02:53:09;;;;;;;27.90;17.87;;;6.10;99.90;;;;;;5072265;28;20197;-70
2021/10/19 02:55:37;;;;;;;29.00;17.63;;;6.10;99.90;;;;;;5071819;28;20441;-70
2021/10/19 02:58:04;;;;;;;24.08;18.73;;;6.20;99.90;;;;;;5055330;28;20178;-70
2021/10/19 03:00:45;;;;;;;25.25;17.38;;;6.10;99.90;;;;;;5072590;28;20210;-71
2021/10/19 03:03:12;;;;;;;24.80;17.65;;;6.10;99.90;;;;;;5072465;28;20268;-70
2021/10/19 03:05:42;;;;;;;25.98;18.23;;;6.10;99.90;;;;;;5056810;28;20280;-70
2021/10/19 03:08:18;;;;;;;30.55;17.80;;;6.10;99.90;;;;;;5072091;28;20233;-70
2021/10/19 03:10:48;;;;;;;27.23;17.65;;;6.00;99.90;;;;;;5071842;28;20213;-70
2021/10/19 03:13:15;;;;;;;28.75;19.00;;;6.00;99.90;;;;;;5056753;28;20687;-70
2021/10/19 03:15:41;;;;;;;29.70;20.13;;;6.00;99.90;;;;;;5071601;28;20206;-70
2021/10/19 03:18:14;;;;;;;26.08;19.35;;;6.00;99.90;;;;;;5071778;28;20185;-69
2021/10/19 03:20:48;;;;;;;27.77;18.95;;;6.00;99.90;;;;;;5054505;28;20726;-70
2021/10/19 03:23:19;;;;;;;33.63;20.85;;;6.00;99.90;;;;;;5055596;28;20174;-69
2021/10/19 03:25:45;;;;;;;26.60;19.55;;;6.00;99.90;;;;;;5071683;28;20686;-71
2021/10/19 03:28:11;;;;;;;31.83;20.53;;;6.00;99.90;;;;;;5071454;28;20188;-70
2021/10/19 03:30:38;;;;;;;30.95;20.15;;;6.00;99.90;;;;;;5071177;28;20206;-71
2021/10/19 03:33:07;;;;;;;28.55;19.80;;;6.10;99.90;;;;;;5071655;28;20174;-71
2021/10/19 03:35:33;;;;;;;29.60;20.23;;;6.10;99.90;;;;;;5071136;28;20595;-71
2021/10/19 03:38:00;;;;;;;30.33;20.80;;;6.20;99.90;;;;;;5071320;28;20178;-70
2021/10/19 03:40:31;;;;;;;30.05;20.20;;;6.20;99.90;;;;;;5071297;28;20212;-71
2021/10/19 03:42:59;;;;;;;26.95;19.08;;;6.20;99.90;;;;;;5071215;28;20216;-70
2021/10/19 03:45:28;;;;;;;32.45;19.30;;;6.30;99.90;;;;;;5071311;28;20205;-70
2021/10/19 03:47:56;;;;;;;31.80;19.20;;;6.30;99.90;;;;;;5054444;28;20185;-73
2021/10/19 03:50:23;;;;;;;27.15;20.33;;;6.30;99.90;;;;;;5071335;28;20213;-71
2021/10/19 03:52:57;;;;;;;29.67;19.65;;;6.30;99.90;;;;;;5069952;28;20173;-71
2021/10/19 03:55:24;;;;;;;25.10;17.63;;;6.30;99.90;;;;;;5071029;28;20209;-71
2021/10/19 03:57:50;;;;;;;26.17;17.67;;;6.30;99.90;;;;;;5054195;28;20694;-70
2021/10/19 04:00:19;;;;;;;27.70;19.80;;;6.20;99.90;;;;;;5070851;28;20241;-71
2021/10/19 04:02:51;;;;;;;28.13;18.65;;;6.20;99.90;;;;;;5055676;28;20162;-70
2021/10/19 04:05:22;;;;;;;30.08;20.48;;;6.10;99.90;;;;;;5071070;28;20620;-70
2021/10/19 04:07:49;;;;;;;32.78;20.20;;;6.00;99.90;;;;;;5071096;28;20689;-71
2021/10/19 04:10:19;;;;;;;31.85;22.05;;;5.90;99.90;;;;;;5070463;28;20210;-70
2021/10/19 04:12:46;;;;;;;30.25;20.73;;;5.90;99.90;;;;;;5070899;28;20170;-71
2021/10/19 04:15:13;;;;;;;37.70;23.13;;;5.90;99.90;;;;;;5070721;28;20772;-70
2021/10/19 04:17:40;;;;;;;32.70;22.85;;;5.90;99.90;;;;;;5070629;28;20202;-71
2021/10/19 04:20:11;;;;;;;36.20;22.42;;;5.80;99.90;;;;;;5053640;28;20237;-71
2021/10/19 04:22:37;;;;;;;36.30;24.17;;;5.80;99.90;;;;;;5070649;28;20231;-70
2021/10/19 04:25:04;;;;;;;42.63;26.58;;;5.80;99.90;;;;;;5054649;28;20705;-73
2021/10/19 04:27:31;;;;;;;49.60;27.30;;;5.80;99.90;;;;;;5066705;28;20185;-72
2021/10/19 04:30:00;;;;;;;46.50;27.48;;;5.90;99.90;;;;;;5071156;28;20197;-70
2021/10/19 04:32:30;;;;;;;41.70;25.13;;;5.90;99.90;;;;;;5070902;28;20224;-71
2021/10/19 04:34:55;;;;;;;36.28;24.95;;;6.00;99.90;;;;;;5072381;28;20658;-71
2021/10/19 04:37:25;;;;;;;35.23;23.00;;;6.10;99.90;;;;;;5073453;28;20215;-70
2021/10/19 04:39:57;;;;;;;39.90;26.70;;;6.20;99.90;;;;;;5072952;28;20454;-71
2021/10/19 04:42:29;;;;;;;36.55;23.75;;;6.30;99.90;;;;;;5064333;28;20211;-71
2021/10/19 04:44:58;;;;;;;32.28;22.85;;;6.30;99.90;;;;;;5070024;28;20201;-70
2021/10/19 04:47:25;;;;;;;42.78;23.70;;;6.40;99.90;;;;;;5083456;28;20177;-71
2021/10/19 04:49:58;;;;;;;39.05;22.27;;;6.40;99.90;;;;;;5073257;28;20212;-70
2021/10/19 04:52:24;;;;;;;30.13;20.77;;;6.50;99.90;;;;;;5070855;28;20628;-72
2021/10/19 04:54:51;;;;;;;31.67;20.77;;;6.60;99.90;;;;;;5062161;28;20216;-70
2021/10/19 04:57:21;;;;;;;33.35;20.98;;;6.60;99.90;;;;;;5069270;28;20290;-70
2021/10/19 04:59:50;;;;;;;35.03;21.92;;;6.60;99.90;;;;;;5068429;28;20217;-71
2021/10/19 05:02:16;;;;;;;34.83;22.03;;;6.50;99.90;;;;;;5064308;28;20184;-72
2021/10/19 05:04:48;;;;;;;28.70;20.38;;;6.50;99.90;;;;;;5064580;28;20205;-70
2021/10/19 05:07:15;;;;;;;27.17;20.17;;;6.40;99.90;;;;;;5070573;28;20191;-70
2021/10/19 05:09:41;;;;;;;29.15;20.60;;;6.30;99.90;;;;;;5067560;28;20740;-72
2021/10/19 05:12:15;;;;;;;29.77;21.10;;;6.20;99.90;;;;;;5055610;28;20643;-70
2021/10/19 05:14:44;;;;;;;30.60;21.05;;;6.20;99.90;;;;;;5058037;28;20632;-72
2021/10/19 05:17:10;;;;;;;31.35;20.60;;;6.10;99.90;;;;;;5070717;28;20685;-72
2021/10/19 05:19:39;;;;;;;31.58;21.98;;;6.00;99.90;;;;;;5070639;28;20256;-71
2021/10/19 05:22:05;;;;;;;31.80;22.60;;;6.00;99.90;;;;;;5063125;28;20649;-72
2021/10/19 05:24:34;;;;;;;38.63;23.33;;;6.00;99.90;;;;;;5051398;28;20288;-71
2021/10/19 05:27:02;;;;;;;35.95;23.42;;;6.00;99.90;;;;;;5049815;28;20174;-70
2021/10/19 05:29:29;;;;;;;45.90;28.25;;;5.90;99.90;;;;;;5050280;28;20271;-72
2021/10/19 05:31:56;;;;;;;36.63;25.92;;;5.80;99.90;;;;;;5062006;28;20178;-70
2021/10/19 05:34:28;;;;;;;54.35;33.85;;;5.80;99.90;;;;;;5070629;28;20213;-70
2021/10/19 05:36:55;;;;;;;38.90;26.65;;;5.80;99.90;;;;;;5070611;28;20256;-72
2021/10/19 05:39:32;;;;;;;35.92;26.65;;;5.80;99.90;;;;;;5072229;28;20196;-70
2021/10/19 05:41:59;;;;;;;37.42;27.17;;;5.80;99.90;;;;;;5072538;28;20212;-71
2021/10/19 05:44:27;;;;;;;34.40;23.90;;;5.80;99.90;;;;;;5058192;28;20208;-71
2021/10/19 05:46:54;;;;;;;44.33;25.35;;;5.80;99.90;;;;;;5066149;28;20188;-72
2021/10/19 05:49:21;;;;;;;41.22;25.27;;;5.80;99.90;;;;;;5071844;28;20204;-70
2021/10/19 05:51:51;;;;;;;35.22;22.27;;;5.80;99.90;;;;;;5071893;28;20549;-71
2021/10/19 05:54:18;;;;;;;53.00;32.05;;;5.90;99.90;;;;;;5071010;28;20221;-72
2021/10/19 05:56:47;;;;;;;78.75;43.80;;;5.90;99.90;;;;;;5069726;28;20692;-71
2021/10/19 05:59:15;;;;;;;82.35;45.97;;;5.80;99.90;;;;;;5086188;28;20715;-71
2021/10/19 06:01:41;;;;;;;142.63;84.78;;;5.90;99.90;;;;;;5086611;28;20198;-72
2021/10/19 06:04:08;;;;;;;56.47;35.85;;;5.90;99.90;;;;;;5085577;28;20177;-71
2021/10/19 06:06:34;;;;;;;42.37;29.87;;;5.90;99.90;;;;;;5066556;28;20192;-70
2021/10/19 06:09:01;;;;;;;44.42;29.65;;;6.00;99.90;;;;;;5066184;28;21001;-71
2021/10/19 06:11:27;;;;;;;39.53;25.02;;;6.00;99.90;;;;;;5054394;28;20526;-70
2021/10/19 06:13:54;;;;;;;34.67;23.98;;;6.10;99.90;;;;;;5059873;28;20265;-71
2021/10/19 06:16:22;;;;;;;36.33;24.77;;;6.10;99.90;;;;;;5068792;28;20236;-71
2021/10/19 06:19:07;;;;;;;38.28;23.90;;;6.20;99.90;;;;;;5054047;28;20178;-71
2021/10/19 06:21:37;;;;;;;37.78;24.98;;;6.30;99.90;;;;;;5061875;28;20224;-71
2021/10/19 06:24:08;;;;;;;39.50;26.35;;;6.30;99.90;;;;;;5070536;28;20537;-71
2021/10/19 06:26:44;;;;;;;38.25;24.95;;;6.40;99.90;;;;;;5089824;28;20169;-71
2021/10/19 06:29:14;;;;;;;50.40;29.75;;;6.60;99.90;;;;;;5091415;28;20173;-71
2021/10/19 06:31:45;;;;;;;47.25;31.45;;;6.60;99.90;;;;;;5069824;28;20579;-70
2021/10/19 06:34:11;;;;;;;38.15;27.52;;;6.70;99.90;;;;;;5058089;28;20620;-72
2021/10/19 06:36:40;;;;;;;41.15;27.13;;;6.80;99.90;;;;;;5070408;28;20209;-72
2021/10/19 06:39:07;;;;;;;39.15;27.13;;;7.00;99.90;;;;;;5070609;28;20185;-71
2021/10/19 06:41:36;;;;;;;39.65;27.60;;;7.10;99.90;;;;;;5072150;28;20552;-71
2021/10/19 06:44:04;;;;;;;42.22;25.88;;;7.20;99.90;;;;;;5071422;28;20200;-72
2021/10/19 06:46:45;;;;;;;55.85;30.33;;;7.40;99.90;;;;;;5067253;28;20204;-70
2021/10/19 06:49:29;;;;;;;67.80;46.65;;;7.50;99.90;;;;;;5062894;28;20181;-71
2021/10/19 06:51:59;;;;;;;51.33;32.47;;;7.70;99.90;;;;;;5074244;28;20234;-70
2021/10/19 06:54:25;;;;;;;52.72;31.35;;;7.80;99.90;;;;;;5073123;28;20201;-73
2021/10/19 06:56:53;;;;;;;39.30;27.63;;;8.00;99.90;;;;;;5086171;28;20213;-71
2021/10/19 06:59:24;;;;;;;41.53;26.85;;;8.20;99.90;;;;;;5090610;28;20432;-71
2021/10/19 07:01:55;;;;;;;48.03;27.73;;;8.30;99.90;;;;;;5089194;28;20185;-71
2021/10/19 07:04:23;;;;;;;46.10;30.90;;;8.50;99.90;;;;;;5058042;28;20222;-71
2021/10/19 07:06:56;;;;;;;43.38;26.92;;;8.70;99.90;;;;;;5069787;28;20685;-73
2021/10/19 07:09:26;;;;;;;74.53;44.67;;;8.90;99.90;;;;;;5068927;28;20209;-72
2021/10/19 07:11:54;;;;;;;56.80;35.65;;;9.10;99.90;;;;;;5054415;28;20185;-74
2021/10/19 07:14:26;;;;;;;37.45;25.15;;;9.30;99.90;;;;;;5059743;28;20694;-72
2021/10/19 07:16:58;;;;;;;30.23;19.90;;;9.50;99.90;;;;;;5081442;28;20232;-73
2021/10/19 07:19:27;;;;;;;36.67;21.00;;;9.70;99.90;;;;;;5079041;28;20197;-71
2021/10/19 07:21:57;;;;;;;33.00;19.95;;;10.00;99.90;;;;;;5058918;28;20324;-72
2021/10/19 07:24:32;;;;;;;31.15;19.45;;;10.20;99.90;;;;;;5065257;28;20208;-72
2021/10/19 07:27:11;;;;;;;28.80;17.67;;;10.40;99.90;;;;;;5059746;28;20217;-72
2021/10/19 07:29:38;;;;;;;27.92;17.45;;;10.70;99.90;;;;;;5045680;28;20690;-74
2021/10/19 07:32:08;;;;;;;27.35;17.23;;;11.00;99.90;;;;;;5058040;28;20177;-72
2021/10/19 07:34:36;;;;;;;24.23;16.50;;;11.30;99.90;;;;;;5056527;28;20209;-73
2021/10/19 07:37:03;;;;;;;26.57;16.70;;;11.70;99.90;;;;;;5057447;28;20231;-74
2021/10/19 07:39:30;;;;;;;23.63;15.82;;;12.10;99.90;;;;;;5055940;28;20552;-72
2021/10/19 07:45:47;;;;;;;24.57;15.60;;;13.40;99.90;;;;;;5349665;22;20621;-74
2021/10/19 07:48:23;;;;;;;22.93;15.13;;;14.40;99.90;;;;;;5061886;28;20444;-77
2021/10/19 07:50:49;;;;;;;23.70;16.10;;;15.50;99.90;;;;;;5038793;28;20548;-72
2021/10/19 07:53:16;;;;;;;20.10;14.20;;;16.50;99.90;;;;;;5025225;28;20435;-72
2021/10/19 07:55:43;;;;;;;21.73;15.90;;;17.70;99.90;;;;;;5025588;28;20588;-72
2021/10/19 07:58:13;;;;;;;26.97;20.80;;;18.80;99.90;;;;;;5022144;28;20800;-71
2021/10/19 08:00:42;;;;;;;17.63;13.50;;;19.70;99.90;;;;;;5030847;28;20491;-74
2021/10/19 08:03:11;;;;;;;18.33;14.00;;;20.60;99.90;;;;;;5035236;28;21070;-72
2021/10/19 08:05:37;;;;;;;17.53;12.73;;;21.40;99.90;;;;;;5042116;28;20448;-73
2021/10/19 08:08:14;;;;;;;19.07;12.70;;;22.10;99.90;;;;;;5031982;28;20466;-72
2021/10/19 08:10:43;;;;;;;14.80;11.83;;;22.80;98.10;;;;;;5035539;28;20528;-73
2021/10/19 08:13:09;;;;;;;14.90;12.50;;;23.40;96.40;;;;;;5023168;28;20496;-73
2021/10/19 08:18:39;;;;;;;15.37;10.37;;;24.50;92.80;;;;;;5026124;28;20444;-72
2021/10/19 08:21:06;;;;;;;13.00;10.33;;;25.10;90.70;;;;;;5022772;28;20549;-74
2021/10/19 08:23:48;;;;;;;13.67;10.10;;;25.50;89.10;;;;;;5023883;28;20679;-72
2021/10/19 08:26:17;;;;;;;15.97;10.40;;;26.00;86.00;;;;;;5023108;28;20565;-74
2021/10/19 08:31:37;;;;;;;13.40;10.03;;;26.80;80.90;;;;;;5078438;22;21051;-72
2021/10/19 08:34:03;;;;;;;19.00;11.43;;;27.00;78.60;;;;;;5063122;28;20523;-72
2021/10/19 08:36:29;;;;;;;25.57;13.40;;;27.00;77.60;;;;;;5063421;28;20564;-72
2021/10/19 08:38:55;;;;;;;15.10;10.90;;;26.60;76.50;;;;;;5051253;28;20186;-73
2021/10/19 08:41:22;;;;;;;13.03;10.40;;;26.00;78.00;;;;;;5057533;28;20210;-73
2021/10/19 08:43:50;;;;;;;14.30;10.70;;;25.30;77.10;;;;;;5057445;28;20441;-71
2021/10/19 08:46:25;;;;;;;14.30;11.60;;;24.70;78.00;;;;;;5057360;28;20478;-71
2021/10/19 08:49:13;;;;;;;14.13;10.80;;;24.30;78.50;;;;;;5064662;28;20456;-72
2021/10/19 08:51:40;;;;;;;13.33;10.80;;;24.20;78.50;;;;;;5051703;28;20485;-71
2021/10/19 08:54:07;;;;;;;10.23;8.87;;;23.90;78.30;;;;;;5054035;28;20503;-72
2021/10/19 08:56:41;;;;;;;15.60;12.50;;;23.60;78.90;;;;;;5061184;28;20964;-72
2021/10/19 08:59:09;;;;;;;16.37;11.30;;;23.30;80.10;;;;;;5062537;28;20524;-72
2021/10/19 09:01:42;;;;;;;13.00;10.80;;;22.90;80.00;;;;;;5061915;28;20425;-72
2021/10/19 09:04:38;;;;;;;13.50;11.27;;;22.70;80.40;;;;;;5060461;28;20442;-73
2021/10/19 09:07:04;;;;;;;11.37;9.30;;;22.20;81.40;;;;;;5081769;28;20433;-75
2021/10/19 09:09:32;;;;;;;12.30;9.97;;;21.40;82.10;;;;;;5063852;28;20650;-76
2021/10/19 09:11:59;;;;;;;16.43;12.30;;;20.80;83.50;;;;;;5061850;28;20421;-76
2021/10/19 09:14:40;;;;;;;16.40;11.63;;;20.30;85.10;;;;;;5067967;28;20485;-72
2021/10/19 09:17:47;;;;;;;14.43;9.93;;;19.90;87.30;;;;;;5067858;28;20462;-70
2021/10/19 09:20:44;;;;;;;13.60;9.27;;;19.60;87.80;;;;;;5030594;28;20511;-71
2021/10/19 09:23:15;;;;;;;12.20;8.60;;;19.10;88.50;;;;;;5062570;28;20662;-70
2021/10/19 09:25:47;;;;;;;12.53;9.00;;;18.70;89.90;;;;;;5049474;28;20466;-71
2021/10/19 09:28:15;;;;;;;10.60;8.57;;;18.50;90.20;;;;;;5056487;28;20514;-70
2021/10/19 09:30:46;;;;;;;11.37;7.70;;;18.30;90.20;;;;;;5067220;28;20974;-70
2021/10/19 09:33:21;;;;;;;16.57;13.80;;;18.20;90.50;;;;;;5068091;28;20449;-70
2021/10/19 09:35:59;;;;;;;13.07;9.17;;;18.10;90.90;;;;;;5065237;28;20568;-70
2021/10/19 09:38:47;;;;;;;13.67;8.80;;;18.10;91.60;;;;;;5057907;28;20424;-72
2021/10/19 09:41:14;;;;;;;12.30;8.50;;;18.20;91.10;;;;;;5063679;28;20934;-72
2021/10/19 09:43:43;;;;;;;12.50;8.80;;;18.30;91.40;;;;;;5070999;28;20770;-73
2021/10/19 09:46:11;;;;;;;11.67;8.90;;;18.20;91.50;;;;;;5061811;28;20823;-73
2021/10/19 09:51:40;;;;;;;12.63;8.97;;;18.00;92.10;;;;;;5065690;28;20491;-70
2021/10/19 09:54:13;;;;;;;13.50;9.60;;;17.90;92.20;;;;;;5066258;28;20422;-71
2021/10/19 09:56:41;;;;;;;11.47;9.00;;;17.90;92.50;;;;;;5059799;28;20849;-70
2021/10/19 09:59:21;;;;;;;12.10;9.97;;;17.80;92.10;;;;;;5064397;28;20442;-71
2021/10/19 10:01:49;;;;;;;13.60;7.90;;;17.70;92.10;;;;;;5062745;28;20525;-70
2021/10/19 10:04:21;;;;;;;9.23;6.70;;;17.60;91.70;;;;;;5064343;28;20454;-71
2021/10/19 10:06:50;;;;;;;7.13;6.43;;;17.50;92.10;;;;;;5066038;28;20469;-70
2021/10/19 10:09:17;;;;;;;7.53;6.67;;;17.30;92.40;;;;;;5065406;28;20453;-70
2021/10/19 10:11:46;;;;;;;11.23;8.50;;;17.20;92.20;;;;;;5063858;28;20512;-70
2021/10/19 10:14:14;;;;;;;12.00;8.20;;;17.20;92.90;;;;;;5067091;28;20428;-71
2021/10/19 10:16:49;;;;;;;10.80;7.60;;;17.20;92.90;;;;;;5068261;28;20496;-70
2021/10/19 10:19:20;;;;;;;11.90;8.27;;;17.20;92.60;;;;;;5066214;28;20444;-71
2021/10/19 10:22:14;;;;;;;8.10;6.80;;;17.10;93.50;;;;;;5062666;28;20425;-71
2021/10/19 10:24:41;;;;;;;11.50;6.57;;;17.20;93.40;;;;;;5066800;28;20988;-70
2021/10/19 10:27:19;;;;;;;9.60;7.63;;;17.20;93.20;;;;;;5053710;28;21315;-70
2021/10/19 10:29:52;;;;;;;8.07;6.77;;;17.20;93.20;;;;;;5062966;28;20885;-70
2021/10/19 10:32:27;;;;;;;9.57;6.83;;;17.20;93.30;;;;;;5062178;28;20429;-71
2021/10/19 10:35:05;;;;;;;9.63;5.60;;;17.20;93.50;;;;;;5060293;28;20550;-71
2021/10/19 10:37:50;;;;;;;6.37;4.07;;;17.20;93.10;;;;;;5066321;28;20476;-70
2021/10/19 10:40:38;;;;;;;5.73;5.03;;;17.20;91.80;;;;;;5059858;28;20583;-71
2021/10/19 10:43:36;;;;;;;6.07;4.80;;;17.20;92.20;;;;;;5061229;28;20438;-72
2021/10/19 10:46:27;;;;;;;9.33;6.37;;;17.20;92.90;;;;;;5077194;28;20894;-71
2021/10/19 10:48:57;;;;;;;6.77;4.60;;;17.10;92.30;;;;;;5061337;28;21049;-71
2021/10/19 10:51:31;;;;;;;6.67;5.07;;;17.10;92.50;;;;;;5054854;28;20462;-71
2021/10/19 10:53:58;;;;;;;7.00;5.60;;;17.10;93.00;;;;;;5062366;28;20432;-71
2021/10/19 10:56:25;;;;;;;7.80;5.70;;;17.10;93.40;;;;;;5057211;28;20715;-71
2021/10/19 10:58:54;;;;;;;7.70;4.67;;;17.10;93.40;;;;;;5059695;28;20432;-71
2021/10/19 11:01:27;;;;;;;6.70;5.17;;;17.20;93.20;;;;;;5059575;28;20699;-70
2021/10/19 11:04:07;;;;;;;7.30;5.43;;;17.20;93.00;;;;;;5079340;28;20522;-70
2021/10/19 11:06:39;;;;;;;7.10;5.93;;;17.30;94.10;;;;;;5068254;28;20456;-71
2021/10/19 11:09:13;;;;;;;7.77;6.10;;;17.30;93.70;;;;;;5057879;28;20449;-71
2021/10/19 11:12:16;;;;;;;6.30;5.70;;;17.40;93.40;;;;;;5065458;28;20539;-71
2021/10/19 11:15:26;;;;;;;7.53;6.70;;;17.40;93.10;;;;;;5067726;28;20466;-71
2021/10/19 11:18:02;;;;;;;6.80;5.30;;;17.50;93.40;;;;;;5060132;28;20469;-70
2021/10/19 11:20:28;;;;;;;7.63;5.83;;;17.50;94.00;;;;;;5067009;28;20552;-71
2021/10/19 11:22:55;;;;;;;6.50;5.53;;;17.50;93.10;;;;;;5064837;28;20528;-72
2021/10/19 11:25:24;;;;;;;7.70;6.07;;;17.50;93.50;;;;;;5067501;28;20446;-68
2021/10/19 11:27:52;;;;;;;8.70;6.03;;;17.50;93.30;;;;;;5066859;28;20433;-71
2021/10/19 11:30:25;;;;;;;9.47;6.40;;;17.50;92.20;;;;;;5068703;28;21080;-71
2021/10/19 11:33:10;;;;;;;10.80;6.00;;;17.50;92.30;;;;;;5069758;28;20413;-72
2021/10/19 11:35:49;;;;;;;7.17;5.80;;;17.50;92.30;;;;;;5069597;28;20457;-69
2021/10/19 11:38:22;;;;;;;7.23;6.07;;;17.50;93.10;;;;;;5068111;28;20952;-68
2021/10/19 11:48:33;;;;;;;8.03;5.80;;;17.40;92.70;;;;;;5062309;28;20441;-71
2021/10/19 11:51:43;;;;;;;7.20;5.23;;;17.40;92.50;;;;;;5062113;28;20463;-72
2021/10/19 11:55:03;;;;;;;7.30;5.27;;;17.40;92.70;;;;;;5065201;28;20400;-73
2021/10/19 11:58:26;;;;;;;9.40;5.80;;;17.30;93.10;;;;;;5052634;28;20564;-69
2021/10/19 12:08:53;;;;;;;8.70;5.73;;;17.50;92.80;;;;;;5044848;28;20803;-72
2021/10/19 12:14:17;;;;;;;8.37;5.60;;;17.50;93.00;;;;;;5219668;22;20477;-94
2021/10/19 12:16:52;;;;;;;8.60;5.10;;;17.50;93.40;;;;;;5056993;28;20509;-95
2021/10/19 12:19:20;;;;;;;6.03;4.53;;;17.50;92.70;;;;;;5055552;28;20496;-88
2021/10/19 12:21:51;;;;;;;6.83;5.80;;;17.50;93.10;;;;;;5054338;28;20430;-94
2021/10/19 12:24:18;;;;;;;8.63;6.57;;;17.50;93.00;;;;;;5052798;28;20422;-95
2021/10/19 12:26:44;;;;;;;7.33;6.00;;;17.60;93.40;;;;;;5050572;28;20808;-94
2021/10/19 12:29:13;;;;;;;6.87;4.90;;;17.60;92.90;;;;;;5052155;28;20426;-95
2021/10/19 12:31:45;;;;;;;9.43;8.07;;;17.60;92.90;;;;;;5055517;28;20411;-87
2021/10/19 12:34:11;;;;;;;7.97;6.60;;;17.60;93.20;;;;;;5052696;28;20573;-95
2021/10/19 12:36:40;;;;;;;6.60;5.90;;;17.60;93.60;;;;;;5061566;28;21003;-93
2021/10/19 12:39:13;;;;;;;7.43;5.60;;;17.60;93.00;;;;;;5052043;28;20439;-89
2021/10/19 12:41:42;;;;;;;5.83;4.47;;;17.60;92.70;;;;;;5048560;28;20510;-88
2021/10/19 12:44:19;;;;;;;7.10;5.57;;;17.60;92.80;;;;;;5048692;28;20434;-88
2021/10/19 12:46:46;;;;;;;8.27;5.83;;;17.60;93.00;;;;;;5050451;28;20520;-88
2021/10/19 12:49:13;;;;;;;4.57;4.13;;;17.60;93.90;;;;;;5051008;28;20500;-88
2021/10/19 12:51:39;;;;;;;7.90;5.27;;;17.60;93.60;;;;;;5047544;28;20449;-88
2021/10/19 12:54:06;;;;;;;9.87;7.03;;;17.60;93.20;;;;;;5053693;28;20416;-88
2021/10/19 12:56:37;;;;;;;7.30;6.30;;;17.60;92.90;;;;;;5054615;28;20551;-88
2021/10/19 12:59:04;;;;;;;6.60;5.20;;;17.70;93.80;;;;;;5061588;28;20438;-94
2021/10/19 13:01:31;;;;;;;7.80;6.33;;;17.70;93.40;;;;;;5051886;28;20787;-88
2021/10/19 13:04:00;;;;;;;5.93;5.17;;;17.70;92.90;;;;;;5053233;28;20454;-94
2021/10/19 13:06:28;;;;;;;7.07;5.67;;;17.70;92.80;;;;;;5052221;28;20488;-88
2021/10/19 13:08:54;;;;;;;7.73;6.17;;;17.70;92.50;;;;;;5051504;28;20899;-95
2021/10/19 13:11:20;;;;;;;13.63;10.30;;;17.70;92.90;;;;;;5053219;28;20457;-95
2021/10/19 13:13:47;;;;;;;8.37;6.50;;;17.70;93.70;;;;;;5053482;28;20479;-95
2021/10/19 13:16:14;;;;;;;10.40;8.60;;;17.70;92.90;;;;;;5053014;28;20454;-88
2021/10/19 13:18:40;;;;;;;9.67;6.53;;;17.80;92.70;;;;;;5049413;28;20939;-95
2021/10/19 13:21:09;;;;;;;10.23;6.03;;;17.80;92.90;;;;;;5048857;28;21065;-88
2021/10/19 13:23:36;;;;;;;7.10;5.87;;;17.80;93.90;;;;;;5048120;28;20439;-88
2021/10/19 13:26:03;;;;;;;10.40;5.70;;;17.90;94.40;;;;;;5051834;28;20459;-88
2021/10/19 13:28:29;;;;;;;6.67;5.77;;;17.90;94.90;;;;;;5054427;28;20443;-96